createdAt,value
2018-09-21T00:00:46.703Z,973.80
2018-09-21T00:01:46.701Z,973.74
2018-09-21T00:02:46.707Z,973.75
2018-09-21T00:03:46.737Z,973.74
2018-09-21T00:04:46.715Z,973.72
2018-09-21T00:05:46.715Z,973.71
2018-09-21T00:06:46.743Z,973.73
2018-09-21T00:07:46.720Z,973.69
2018-09-21T00:08:46.720Z,973.63
2018-09-21T00:09:46.752Z,973.68
2018-09-21T00:10:46.724Z,973.67
2018-09-21T00:11:46.737Z,973.69
2018-09-21T00:12:46.733Z,973.67
2018-09-21T00:13:46.733Z,973.66
2018-09-21T00:14:46.767Z,973.66
2018-09-21T00:15:46.741Z,973.61
2018-09-21T00:16:46.742Z,973.65
2018-09-21T00:17:46.750Z,973.63
2018-09-21T00:18:46.746Z,973.61
2018-09-21T00:19:46.779Z,973.68
2018-09-21T00:20:46.751Z,973.64
2018-09-21T00:21:46.754Z,973.63
2018-09-21T00:22:46.759Z,973.64
2018-09-21T00:23:46.759Z,973.63
2018-09-21T00:24:46.787Z,973.67
2018-09-21T00:25:46.767Z,973.76
2018-09-21T00:26:46.767Z,973.48
2018-09-21T00:27:46.768Z,973.60
2018-09-21T00:28:46.765Z,973.55
2018-09-21T00:29:46.800Z,973.50
2018-09-21T00:30:46.778Z,973.60
2018-09-21T00:31:46.781Z,973.65
2018-09-21T00:32:46.781Z,973.63
2018-09-21T00:33:46.781Z,973.55
2018-09-21T00:34:46.811Z,973.51
2018-09-21T00:35:46.793Z,973.59
2018-09-21T00:36:46.790Z,973.57
2018-09-21T00:37:46.795Z,973.50
2018-09-21T00:38:46.795Z,973.51
2018-09-21T00:39:46.827Z,973.50
2018-09-21T00:40:46.799Z,973.51
2018-09-21T00:41:46.807Z,973.49
2018-09-21T00:42:46.807Z,973.43
2018-09-21T00:43:46.811Z,973.44
2018-09-21T00:44:46.836Z,973.41
2018-09-21T00:45:46.812Z,973.47
2018-09-21T00:46:46.816Z,973.42
2018-09-21T00:47:46.821Z,973.38
2018-09-21T00:48:46.821Z,973.38
2018-09-21T00:49:46.849Z,973.44
2018-09-21T00:50:46.825Z,973.43
2018-09-21T00:51:46.827Z,973.43
2018-09-21T00:52:46.831Z,973.41
2018-09-21T00:53:46.854Z,973.42
2018-09-21T00:54:46.833Z,973.38
2018-09-21T00:55:46.838Z,973.31
2018-09-21T00:56:46.871Z,973.32
2018-09-21T00:57:46.843Z,973.35
2018-09-21T00:58:46.843Z,973.33
2018-09-21T00:59:46.871Z,973.31
2018-09-21T01:00:46.846Z,973.30
2018-09-21T01:01:46.851Z,973.35
2018-09-21T01:02:46.861Z,973.30
2018-09-21T01:03:46.861Z,973.31
2018-09-21T01:04:46.887Z,973.29
2018-09-21T01:05:46.857Z,973.31
2018-09-21T01:06:46.866Z,973.29
2018-09-21T01:07:46.868Z,973.32
2018-09-21T01:08:46.898Z,973.30
2018-09-21T01:09:46.869Z,973.20
2018-09-21T01:10:46.874Z,973.26
2018-09-21T01:11:46.878Z,973.25
2018-09-21T01:12:46.878Z,973.22
2018-09-21T01:13:46.907Z,973.24
2018-09-21T01:14:46.887Z,973.21
2018-09-21T01:15:46.888Z,973.19
2018-09-21T01:16:46.886Z,973.10
2018-09-21T01:17:46.890Z,973.05
2018-09-21T01:18:46.923Z,973.09
2018-09-21T01:19:46.896Z,973.07
2018-09-21T01:20:46.895Z,973.11
2018-09-21T01:21:46.899Z,973.10
2018-09-21T01:22:46.904Z,973.08
2018-09-21T01:23:47.052Z,973.06
2018-09-21T01:24:46.911Z,973.05
2018-09-21T01:25:46.908Z,973.06
2018-09-21T01:26:46.917Z,973.06
2018-09-21T01:27:46.941Z,973.08
2018-09-21T01:28:46.946Z,973.04
2018-09-21T01:29:46.922Z,972.96
2018-09-21T01:30:46.918Z,973.08
2018-09-21T01:31:46.927Z,973.03
2018-09-21T01:32:46.944Z,973.02
2018-09-21T01:33:46.955Z,973.06
2018-09-21T01:34:46.931Z,972.97
2018-09-21T01:35:46.933Z,973.01
2018-09-21T01:36:46.940Z,972.97
2018-09-21T01:37:46.940Z,972.95
2018-09-21T01:38:46.969Z,972.99
2018-09-21T01:39:46.943Z,972.93
2018-09-21T01:40:46.944Z,972.95
2018-09-21T01:41:46.948Z,972.84
2018-09-21T01:42:46.948Z,972.83
2018-09-21T01:43:47.126Z,972.88
2018-09-21T01:44:46.958Z,972.78
2018-09-21T01:45:46.957Z,972.87
2018-09-21T01:46:46.960Z,972.86
2018-09-21T01:47:46.962Z,972.87
2018-09-21T01:48:46.994Z,972.83
2018-09-21T01:49:46.965Z,972.91
2018-09-21T01:50:46.971Z,972.82
2018-09-21T01:51:46.972Z,972.81
2018-09-21T01:52:46.974Z,972.81
2018-09-21T01:53:47.004Z,972.84
2018-09-21T01:54:46.977Z,972.76
2018-09-21T01:55:46.979Z,972.68
2018-09-21T01:56:46.989Z,972.81
2018-09-21T01:57:47.012Z,972.70
2018-09-21T01:58:46.988Z,972.79
2018-09-21T01:59:47.017Z,972.73
2018-09-21T02:00:46.996Z,972.71
2018-09-21T02:01:46.992Z,972.73
2018-09-21T02:02:46.998Z,972.78
2018-09-21T02:03:47.062Z,972.77
2018-09-21T02:04:47.029Z,972.74
2018-09-21T02:05:47.000Z,972.75
2018-09-21T02:06:47.005Z,972.70
2018-09-21T02:07:47.009Z,972.73
2018-09-21T02:08:47.015Z,972.71
2018-09-21T02:09:47.039Z,972.69
2018-09-21T02:10:47.015Z,972.69
2018-09-21T02:11:47.022Z,972.65
2018-09-21T02:12:47.017Z,972.66
2018-09-21T02:13:47.021Z,972.61
2018-09-21T02:14:47.054Z,972.63
2018-09-21T02:15:47.028Z,972.63
2018-09-21T02:16:47.028Z,972.58
2018-09-21T02:17:47.084Z,972.61
2018-09-21T02:18:47.032Z,972.55
2018-09-21T02:19:47.063Z,972.57
2018-09-21T02:20:47.036Z,972.55
2018-09-21T02:21:47.037Z,972.53
2018-09-21T02:22:47.040Z,972.45
2018-09-21T02:23:47.045Z,972.48
2018-09-21T02:24:47.045Z,972.51
2018-09-21T02:25:47.081Z,972.53
2018-09-21T02:26:47.051Z,972.44
2018-09-21T02:27:47.050Z,972.45
2018-09-21T02:28:47.054Z,972.38
2018-09-21T02:29:47.059Z,972.42
2018-09-21T02:30:47.089Z,972.45
2018-09-21T02:31:47.060Z,972.45
2018-09-21T02:32:47.065Z,972.48
2018-09-21T02:33:47.063Z,972.45
2018-09-21T02:34:47.072Z,972.49
2018-09-21T02:35:47.100Z,972.46
2018-09-21T02:36:47.072Z,972.37
2018-09-21T02:37:47.072Z,972.45
2018-09-21T02:38:47.076Z,972.45
2018-09-21T02:39:47.109Z,972.42
2018-09-21T02:40:47.073Z,972.42
2018-09-21T02:41:47.115Z,972.45
2018-09-21T02:42:47.081Z,972.44
2018-09-21T02:43:47.085Z,972.45
2018-09-21T02:44:47.087Z,972.41
2018-09-21T02:45:47.118Z,972.38
2018-09-21T02:46:47.090Z,972.40
2018-09-21T02:47:47.095Z,972.47
2018-09-21T02:48:47.163Z,972.39
2018-09-21T02:49:47.099Z,972.45
2018-09-21T02:50:47.128Z,972.40
2018-09-21T02:51:47.104Z,972.39
2018-09-21T02:52:47.104Z,972.34
2018-09-21T02:53:47.108Z,972.38
2018-09-21T02:54:47.108Z,972.34
2018-09-21T02:55:47.140Z,972.30
2018-09-21T02:56:47.113Z,972.29
2018-09-21T02:57:47.117Z,972.35
2018-09-21T02:58:47.117Z,972.27
2018-09-21T02:59:47.121Z,972.27
2018-09-21T03:00:47.267Z,972.26
2018-09-21T03:01:47.126Z,972.23
2018-09-21T03:02:47.126Z,972.19
2018-09-21T03:03:47.155Z,972.17
2018-09-21T03:04:47.131Z,972.20
2018-09-21T03:05:47.161Z,972.20
2018-09-21T03:06:47.134Z,972.08
2018-09-21T03:07:47.137Z,972.13
2018-09-21T03:08:47.140Z,972.12
2018-09-21T03:09:47.140Z,972.12
2018-09-21T03:10:47.168Z,972.12
2018-09-21T03:11:47.144Z,972.09
2018-09-21T03:12:47.169Z,972.04
2018-09-21T03:13:47.148Z,972.11
2018-09-21T03:14:47.155Z,972.04
2018-09-21T03:15:47.186Z,972.02
2018-09-21T03:16:47.162Z,972.02
2018-09-21T03:17:47.162Z,971.98
2018-09-21T03:18:47.158Z,972.02
2018-09-21T03:19:47.162Z,971.96
2018-09-21T03:20:47.188Z,971.91
2018-09-21T03:21:47.174Z,971.93
2018-09-21T03:22:47.173Z,971.92
2018-09-21T03:23:47.171Z,971.93
2018-09-21T03:24:47.199Z,971.89
2018-09-21T03:25:47.175Z,971.95
2018-09-21T03:26:47.202Z,971.91
2018-09-21T03:27:47.181Z,971.81
2018-09-21T03:28:47.183Z,971.88
2018-09-21T03:29:47.176Z,971.80
2018-09-21T03:30:47.184Z,971.79
2018-09-21T03:31:47.214Z,971.82
2018-09-21T03:32:47.188Z,971.76
2018-09-21T03:33:47.189Z,971.75
2018-09-21T03:34:47.216Z,971.78
2018-09-21T03:35:47.190Z,971.77
2018-09-21T03:36:47.218Z,971.75
2018-09-21T03:37:47.199Z,971.77
2018-09-21T03:38:47.202Z,971.67
2018-09-21T03:39:47.204Z,971.73
2018-09-21T03:40:47.205Z,971.70
2018-09-21T03:41:47.235Z,971.67
2018-09-21T03:42:47.203Z,971.75
2018-09-21T03:43:47.212Z,971.72
2018-09-21T03:44:47.216Z,971.68
2018-09-21T03:45:47.233Z,971.70
2018-09-21T03:46:47.248Z,971.63
2018-09-21T03:47:47.219Z,971.67
2018-09-21T03:48:47.225Z,971.59
2018-09-21T03:49:47.224Z,971.63
2018-09-21T03:50:47.225Z,971.61
2018-09-21T03:51:47.253Z,971.62
2018-09-21T03:52:47.229Z,971.66
2018-09-21T03:53:47.225Z,971.56
2018-09-21T03:54:47.257Z,971.57
2018-09-21T03:55:47.235Z,971.55
2018-09-21T03:56:47.246Z,971.56
2018-09-21T03:57:47.270Z,971.50
2018-09-21T03:58:47.244Z,971.49
2018-09-21T03:59:47.245Z,971.47
2018-09-21T04:00:47.245Z,971.48
2018-09-21T04:01:47.249Z,971.41
2018-09-21T04:02:47.275Z,971.44
2018-09-21T04:03:47.251Z,971.38
2018-09-21T04:04:47.246Z,971.43
2018-09-21T04:05:47.253Z,971.41
2018-09-21T04:06:47.260Z,971.41
2018-09-21T04:07:47.284Z,971.42
2018-09-21T04:08:47.260Z,971.35
2018-09-21T04:09:47.256Z,971.40
2018-09-21T04:10:47.260Z,971.36
2018-09-21T04:11:47.265Z,971.36
2018-09-21T04:12:47.308Z,971.37
2018-09-21T04:13:47.315Z,971.34
2018-09-21T04:14:47.297Z,971.32
2018-09-21T04:15:47.274Z,971.31
2018-09-21T04:16:47.277Z,971.30
2018-09-21T04:17:47.277Z,971.30
2018-09-21T04:18:47.304Z,971.29
2018-09-21T04:19:47.282Z,971.27
2018-09-21T04:20:47.281Z,971.22
2018-09-21T04:21:47.328Z,971.27
2018-09-21T04:22:47.286Z,971.27
2018-09-21T04:23:47.319Z,971.25
2018-09-21T04:24:47.291Z,971.26
2018-09-21T04:25:47.291Z,971.33
2018-09-21T04:26:47.294Z,971.22
2018-09-21T04:27:47.296Z,971.20
2018-09-21T04:28:47.327Z,971.15
2018-09-21T04:29:47.300Z,971.16
2018-09-21T04:30:47.304Z,971.05
2018-09-21T04:31:47.304Z,971.16
2018-09-21T04:32:47.304Z,971.06
2018-09-21T04:33:47.337Z,971.07
2018-09-21T04:34:47.313Z,971.13
2018-09-21T04:35:47.313Z,970.99
2018-09-21T04:36:47.313Z,971.01
2018-09-21T04:37:47.318Z,971.05
2018-09-21T04:38:47.342Z,971.02
2018-09-21T04:39:47.322Z,971.07
2018-09-21T04:40:47.324Z,971.04
2018-09-21T04:41:48.187Z,971.03
2018-09-21T04:42:47.326Z,971.07
2018-09-21T04:43:47.355Z,971.01
2018-09-21T04:44:47.332Z,971.04
2018-09-21T04:45:47.346Z,971.00
2018-09-21T04:46:47.331Z,970.99
2018-09-21T04:47:47.365Z,970.94
2018-09-21T04:48:47.334Z,970.97
2018-09-21T04:49:47.348Z,971.00
2018-09-21T04:50:47.368Z,971.02
2018-09-21T04:51:47.492Z,971.01
2018-09-21T04:52:47.344Z,970.94
2018-09-21T04:53:47.372Z,970.99
2018-09-21T04:54:47.346Z,970.96
2018-09-21T04:55:47.353Z,970.90
2018-09-21T04:56:47.355Z,970.94
2018-09-21T04:57:47.389Z,970.94
2018-09-21T04:58:47.357Z,970.97
2018-09-21T04:59:47.362Z,970.91
2018-09-21T05:00:47.362Z,970.99
2018-09-21T05:01:47.363Z,970.98
2018-09-21T05:02:47.396Z,970.94
2018-09-21T05:03:47.366Z,970.97
2018-09-21T05:04:47.374Z,970.97
2018-09-21T05:05:47.366Z,970.99
2018-09-21T05:06:47.373Z,970.96
2018-09-21T05:07:47.403Z,970.97
2018-09-21T05:08:47.383Z,970.97
2018-09-21T05:09:47.380Z,971.01
2018-09-21T05:10:47.384Z,971.01
2018-09-21T05:11:47.388Z,971.02
2018-09-21T05:12:47.412Z,971.03
2018-09-21T05:13:47.445Z,970.94
2018-09-21T05:14:47.393Z,971.00
2018-09-21T05:15:47.396Z,970.94
2018-09-21T05:16:47.391Z,970.90
2018-09-21T05:17:47.426Z,970.95
2018-09-21T05:18:47.399Z,970.98
2018-09-21T05:19:47.412Z,970.92
2018-09-21T05:20:47.403Z,970.94
2018-09-21T05:21:47.657Z,970.92
2018-09-21T05:22:47.435Z,970.94
2018-09-21T05:23:47.468Z,970.94
2018-09-21T05:24:47.413Z,970.96
2018-09-21T05:25:47.419Z,970.90
2018-09-21T05:26:47.416Z,970.91
2018-09-21T05:27:47.444Z,970.94
2018-09-21T05:28:47.420Z,970.85
2018-09-21T05:29:47.436Z,970.86
2018-09-21T05:30:47.428Z,970.96
2018-09-21T05:31:47.433Z,970.95
2018-09-21T05:32:47.468Z,970.93
2018-09-21T05:33:47.433Z,970.97
2018-09-21T05:34:47.612Z,970.91
2018-09-21T05:35:47.438Z,970.89
2018-09-21T05:36:47.442Z,970.87
2018-09-21T05:37:47.474Z,970.84
2018-09-21T05:38:47.442Z,970.83
2018-09-21T05:39:47.442Z,970.87
2018-09-21T05:40:47.446Z,970.88
2018-09-21T05:41:47.450Z,970.88
2018-09-21T05:42:47.486Z,970.86
2018-09-21T05:43:47.456Z,970.74
2018-09-21T05:44:47.455Z,970.81
2018-09-21T05:45:47.460Z,970.84
2018-09-21T05:46:47.463Z,970.81
2018-09-21T05:47:47.488Z,970.82
2018-09-21T05:48:47.471Z,970.83
2018-09-21T05:49:47.468Z,970.74
2018-09-21T05:50:47.469Z,970.81
2018-09-21T05:51:47.472Z,970.75
2018-09-21T05:52:47.501Z,970.72
2018-09-21T05:53:47.476Z,970.74
2018-09-21T05:54:47.477Z,970.75
2018-09-21T05:55:47.482Z,970.74
2018-09-21T05:56:47.512Z,970.66
2018-09-21T05:57:47.487Z,970.77
2018-09-21T05:58:47.491Z,970.79
2018-09-21T05:59:47.489Z,970.75
2018-09-21T06:00:47.498Z,970.77
2018-09-21T06:01:47.523Z,970.80
2018-09-21T06:02:47.549Z,970.78
2018-09-21T06:03:47.528Z,970.80
2018-09-21T06:04:47.500Z,970.79
2018-09-21T06:05:47.508Z,970.70
2018-09-21T06:06:47.540Z,970.79
2018-09-21T06:07:47.589Z,970.79
2018-09-21T06:08:47.516Z,970.79
2018-09-21T06:09:47.513Z,970.80
2018-09-21T06:10:47.522Z,970.84
2018-09-21T06:11:47.550Z,970.85
2018-09-21T06:12:47.527Z,970.87
2018-09-21T06:13:47.625Z,970.87
2018-09-21T06:14:47.540Z,970.91
2018-09-21T06:15:47.538Z,970.93
2018-09-21T06:16:47.567Z,970.96
2018-09-21T06:17:47.542Z,970.94
2018-09-21T06:18:47.548Z,970.97
2018-09-21T06:19:47.549Z,970.96
2018-09-21T06:20:47.553Z,970.98
2018-09-21T06:21:47.585Z,970.99
2018-09-21T06:22:47.572Z,970.92
2018-09-21T06:23:47.564Z,971.02
2018-09-21T06:24:47.567Z,971.02
2018-09-21T06:25:47.565Z,971.01
2018-09-21T06:26:47.607Z,970.96
2018-09-21T06:27:47.577Z,970.90
2018-09-21T06:28:47.582Z,970.85
2018-09-21T06:29:47.588Z,970.83
2018-09-21T06:30:47.593Z,970.73
2018-09-21T06:31:47.627Z,970.72
2018-09-21T06:32:47.601Z,970.66
2018-09-21T06:33:47.607Z,970.68
2018-09-21T06:34:47.609Z,970.67
2018-09-21T06:35:47.615Z,970.74
2018-09-21T06:36:47.648Z,970.71
2018-09-21T06:37:47.619Z,970.71
2018-09-21T06:38:47.622Z,970.58
2018-09-21T06:39:47.629Z,970.56
2018-09-21T06:40:47.634Z,970.66
2018-09-21T06:41:47.667Z,970.67
2018-09-21T06:42:47.648Z,970.65
2018-09-21T06:43:47.683Z,970.59
2018-09-21T06:44:47.656Z,970.58
2018-09-21T06:45:47.660Z,970.68
2018-09-21T06:46:47.692Z,970.63
2018-09-21T06:47:47.670Z,970.65
2018-09-21T06:48:47.668Z,970.65
2018-09-21T06:49:47.691Z,970.51
2018-09-21T06:50:47.683Z,970.59
2018-09-21T06:51:47.718Z,970.57
2018-09-21T06:52:47.698Z,970.51
2018-09-21T06:53:47.695Z,970.55
2018-09-21T06:54:47.704Z,970.59
2018-09-21T06:55:47.710Z,970.57
2018-09-21T06:56:47.738Z,970.55
2018-09-21T06:57:47.754Z,970.47
2018-09-21T06:58:47.723Z,970.45
2018-09-21T06:59:47.735Z,970.45
2018-09-21T07:00:47.739Z,970.55
2018-09-21T07:01:47.849Z,970.53
2018-09-21T07:02:47.772Z,970.50
2018-09-21T07:03:47.752Z,970.57
2018-09-21T07:04:47.757Z,970.59
2018-09-21T07:05:47.761Z,970.64
2018-09-21T07:06:47.793Z,970.67
2018-09-21T07:07:47.772Z,970.69
2018-09-21T07:08:47.784Z,970.69
2018-09-21T07:09:47.785Z,970.77
2018-09-21T07:10:47.799Z,970.70
2018-09-21T07:11:47.826Z,970.73
2018-09-21T07:12:47.806Z,970.75
2018-09-21T07:13:47.846Z,970.78
2018-09-21T07:14:47.822Z,970.74
2018-09-21T07:15:47.855Z,970.80
2018-09-21T07:16:47.835Z,970.78
2018-09-21T07:17:47.879Z,970.76
2018-09-21T07:18:47.854Z,970.75
2018-09-21T07:19:47.859Z,970.70
2018-09-21T07:20:47.868Z,970.72
2018-09-21T07:21:47.883Z,970.70
2018-09-21T07:22:47.916Z,970.71
2018-09-21T07:23:47.952Z,970.67
2018-09-21T07:24:47.901Z,970.71
2018-09-21T07:25:47.910Z,970.64
2018-09-21T07:26:47.918Z,970.71
2018-09-21T07:27:47.957Z,970.69
2018-09-21T07:28:47.941Z,970.66
2018-09-21T07:29:47.950Z,970.70
2018-09-21T07:30:48.010Z,970.63
2018-09-21T07:31:47.966Z,970.59
2018-09-21T07:32:48.003Z,970.65
2018-09-21T07:33:47.988Z,970.60
2018-09-21T07:34:47.995Z,970.49
2018-09-21T07:35:48.009Z,970.56
2018-09-21T07:36:48.013Z,970.60
2018-09-21T07:37:48.052Z,970.60
2018-09-21T07:38:48.036Z,970.57
2018-09-21T07:39:48.043Z,970.57
2018-09-21T07:40:48.058Z,970.55
2018-09-21T07:41:48.072Z,970.65
2018-09-21T07:42:48.106Z,970.66
2018-09-21T07:43:48.188Z,970.66
2018-09-21T07:44:48.093Z,970.63
2018-09-21T07:45:48.105Z,970.68
2018-09-21T07:46:48.113Z,970.74
2018-09-21T07:47:48.152Z,970.66
2018-09-21T07:48:48.157Z,970.72
2018-09-21T07:49:48.143Z,970.83
2018-09-21T07:50:48.154Z,970.87
2018-09-21T07:51:48.166Z,970.77
2018-09-21T07:52:48.203Z,970.85
2018-09-21T07:53:48.184Z,970.82
2018-09-21T07:54:48.200Z,970.76
2018-09-21T07:55:48.204Z,970.72
2018-09-21T07:56:48.217Z,970.68
2018-09-21T07:57:48.250Z,970.70
2018-09-21T07:58:48.240Z,970.68
2018-09-21T07:59:48.252Z,970.62
2018-09-21T08:00:48.267Z,970.65
2018-09-21T08:01:48.277Z,970.58
2018-09-21T08:02:48.311Z,970.58
2018-09-21T08:03:48.295Z,970.61
2018-09-21T08:04:48.309Z,970.59
2018-09-21T08:05:48.325Z,970.60
2018-09-21T08:06:48.334Z,970.58
2018-09-21T08:07:48.374Z,970.39
2018-09-21T08:08:48.358Z,970.47
2018-09-21T08:09:48.372Z,970.49
2018-09-21T08:10:48.398Z,970.42
2018-09-21T08:11:48.395Z,970.42
2018-09-21T08:12:48.469Z,970.49
2018-09-21T08:13:48.447Z,970.44
2018-09-21T08:14:48.436Z,970.39
2018-09-21T08:15:48.441Z,970.28
2018-09-21T08:16:48.457Z,970.36
2018-09-21T08:17:48.496Z,970.38
2018-09-21T08:18:48.505Z,970.34
2018-09-21T08:19:48.543Z,970.33
2018-09-21T08:20:48.502Z,970.30
2018-09-21T08:21:48.518Z,970.34
2018-09-21T08:22:48.554Z,970.40
2018-09-21T08:23:48.563Z,970.27
2018-09-21T08:24:48.554Z,970.28
2018-09-21T08:25:48.563Z,970.28
2018-09-21T08:26:48.575Z,970.01
2018-09-21T08:27:48.619Z,969.94
2018-09-21T08:28:48.631Z,970.02
2018-09-21T08:29:48.612Z,969.91
2018-09-21T08:30:48.633Z,970.09
2018-09-21T08:31:48.636Z,970.03
2018-09-21T08:32:48.673Z,970.08
2018-09-21T08:33:48.685Z,969.85
2018-09-21T08:34:48.670Z,969.98
2018-09-21T08:35:48.680Z,970.16
2018-09-21T08:36:48.694Z,970.21
2018-09-21T08:37:48.701Z,970.25
2018-09-21T08:38:48.929Z,970.12
2018-09-21T08:39:51.261Z,970.25
2018-09-21T08:40:48.730Z,970.21
2018-09-21T08:41:48.742Z,970.23
2018-09-21T08:42:49.084Z,970.19
2018-09-21T08:43:48.787Z,970.15
2018-09-21T08:44:51.779Z,970.21
2018-09-21T08:45:48.783Z,970.16
2018-09-21T08:46:48.795Z,970.13
2018-09-21T08:47:48.809Z,970.08
2018-09-21T08:48:48.862Z,970.13
2018-09-21T08:49:48.858Z,970.20
2018-09-21T08:50:49.393Z,970.13
2018-09-21T08:51:49.060Z,970.17
2018-09-21T08:52:48.861Z,970.00
2018-09-21T08:53:48.869Z,970.10
2018-09-21T08:54:48.961Z,969.98
2018-09-21T08:55:48.892Z,970.05
2018-09-21T08:56:49.757Z,969.93
2018-09-21T08:57:49.841Z,969.93
2018-09-21T08:58:48.953Z,969.73
2018-09-21T08:59:48.938Z,969.88
2018-09-21T09:00:48.952Z,970.04
2018-09-21T09:01:48.958Z,969.95
2018-09-21T09:02:50.278Z,970.04
2018-09-21T09:03:49.007Z,969.89
2018-09-21T09:04:48.988Z,969.75
2018-09-21T09:05:49.000Z,969.78
2018-09-21T09:06:49.013Z,969.70
2018-09-21T09:07:49.021Z,969.68
2018-09-21T09:08:49.054Z,969.58
2018-09-21T09:09:50.010Z,969.62
2018-09-21T09:10:49.050Z,969.68
2018-09-21T09:11:49.064Z,969.65
2018-09-21T09:12:49.070Z,969.62
2018-09-21T09:13:49.112Z,969.66
2018-09-21T09:14:49.094Z,969.70
2018-09-21T09:15:49.958Z,969.70
2018-09-21T09:16:51.007Z,969.73
2018-09-21T09:17:49.120Z,969.56
2018-09-21T09:18:49.152Z,969.55
2018-09-21T09:19:49.136Z,969.69
2018-09-21T09:20:49.144Z,969.62
2018-09-21T09:21:49.153Z,969.59
2018-09-21T09:22:49.161Z,969.64
2018-09-21T09:23:49.306Z,969.64
2018-09-21T09:24:49.182Z,969.62
2018-09-21T09:25:49.190Z,969.60
2018-09-21T09:26:49.198Z,969.66
2018-09-21T09:27:49.206Z,969.68
2018-09-21T09:28:49.244Z,969.65
2018-09-21T09:29:49.236Z,969.71
2018-09-21T09:30:49.238Z,969.51
2018-09-21T09:31:49.243Z,969.52
2018-09-21T09:32:49.251Z,969.67
2018-09-21T09:33:49.287Z,969.68
2018-09-21T09:34:49.273Z,969.64
2018-09-21T09:35:49.311Z,969.59
2018-09-21T09:36:49.335Z,969.54
2018-09-21T09:37:49.304Z,969.47
2018-09-21T09:38:49.330Z,969.54
2018-09-21T09:39:49.317Z,969.48
2018-09-21T09:40:49.325Z,969.52
2018-09-21T09:41:49.337Z,969.43
2018-09-21T09:42:49.398Z,969.44
2018-09-21T09:43:49.385Z,969.40
2018-09-21T09:44:49.361Z,969.36
2018-09-21T09:45:49.374Z,969.42
2018-09-21T09:46:49.379Z,969.42
2018-09-21T09:47:49.392Z,969.41
2018-09-21T09:48:49.475Z,969.47
2018-09-21T09:49:49.407Z,969.44
2018-09-21T09:50:49.414Z,969.51
2018-09-21T09:51:49.424Z,969.48
2018-09-21T09:52:49.433Z,969.47
2018-09-21T09:53:49.472Z,969.49
2018-09-21T09:54:49.466Z,969.49
2018-09-21T09:55:49.466Z,969.50
2018-09-21T09:56:49.469Z,969.50
2018-09-21T09:57:49.550Z,969.48
2018-09-21T09:58:49.513Z,969.36
2018-09-21T09:59:49.533Z,969.44
2018-09-21T10:00:49.535Z,969.46
2018-09-21T10:01:49.533Z,969.44
2018-09-21T10:02:49.558Z,969.47
2018-09-21T10:03:49.599Z,969.47
2018-09-21T10:04:49.551Z,969.38
2018-09-21T10:05:49.540Z,969.46
2018-09-21T10:06:49.569Z,969.48
2018-09-21T10:07:49.559Z,969.47
2018-09-21T10:08:49.592Z,969.44
2018-09-21T10:09:49.571Z,969.38
2018-09-21T10:10:49.590Z,969.31
2018-09-21T10:11:49.619Z,969.35
2018-09-21T10:12:49.622Z,969.30
2018-09-21T10:13:49.637Z,969.27
2018-09-21T10:14:49.643Z,969.24
2018-09-21T10:15:49.625Z,969.24
2018-09-21T10:16:49.633Z,969.21
2018-09-21T10:17:49.643Z,969.19
2018-09-21T10:18:49.679Z,969.26
2018-09-21T10:19:49.687Z,969.22
2018-09-21T10:20:49.762Z,969.13
2018-09-21T10:21:49.675Z,969.10
2018-09-21T10:22:49.684Z,969.10
2018-09-21T10:23:49.720Z,969.10
2018-09-21T10:24:49.701Z,969.03
2018-09-21T10:25:49.705Z,969.03
2018-09-21T10:26:49.719Z,969.03
2018-09-21T10:27:49.824Z,969.06
2018-09-21T10:28:49.886Z,968.98
2018-09-21T10:29:49.738Z,968.97
2018-09-21T10:30:49.749Z,968.95
2018-09-21T10:31:49.755Z,968.89
2018-09-21T10:32:49.761Z,968.86
2018-09-21T10:33:49.866Z,968.86
2018-09-21T10:34:49.779Z,968.88
2018-09-21T10:35:49.788Z,968.90
2018-09-21T10:36:49.794Z,968.87
2018-09-21T10:37:49.803Z,968.91
2018-09-21T10:38:49.863Z,968.91
2018-09-21T10:39:49.893Z,968.81
2018-09-21T10:40:49.824Z,968.86
2018-09-21T10:41:49.832Z,968.88
2018-09-21T10:42:49.917Z,968.94
2018-09-21T10:43:49.905Z,968.91
2018-09-21T10:44:49.907Z,968.90
2018-09-21T10:45:49.862Z,968.88
2018-09-21T10:46:49.869Z,968.93
2018-09-21T10:47:49.875Z,968.89
2018-09-21T10:48:49.884Z,968.85
2018-09-21T10:49:49.922Z,968.85
2018-09-21T10:50:49.896Z,968.81
2018-09-21T10:51:49.904Z,968.81
2018-09-21T10:52:49.921Z,968.83
2018-09-21T10:53:49.948Z,968.84
2018-09-21T10:54:49.961Z,968.78
2018-09-21T10:55:49.936Z,968.79
2018-09-21T10:56:49.943Z,968.79
2018-09-21T10:57:49.943Z,968.68
2018-09-21T10:58:49.989Z,968.76
2018-09-21T10:59:49.992Z,968.82
2018-09-21T11:00:49.975Z,968.75
2018-09-21T11:01:49.981Z,968.79
2018-09-21T11:02:49.989Z,968.77
2018-09-21T11:03:50.022Z,968.73
2018-09-21T11:04:50.026Z,968.76
2018-09-21T11:05:50.009Z,968.78
2018-09-21T11:06:50.014Z,968.79
2018-09-21T11:07:50.022Z,968.79
2018-09-21T11:08:50.027Z,968.72
2018-09-21T11:09:50.063Z,968.77
2018-09-21T11:10:50.043Z,968.74
2018-09-21T11:11:50.083Z,968.71
2018-09-21T11:12:50.055Z,968.75
2018-09-21T11:13:50.094Z,968.71
2018-09-21T11:14:50.073Z,968.69
2018-09-21T11:15:50.076Z,968.59
2018-09-21T11:16:50.091Z,968.69
2018-09-21T11:17:50.104Z,968.61
2018-09-21T11:18:50.151Z,968.64
2018-09-21T11:19:50.109Z,968.56
2018-09-21T11:20:50.117Z,968.61
2018-09-21T11:21:50.117Z,968.54
2018-09-21T11:22:50.127Z,968.54
2018-09-21T11:23:50.162Z,968.50
2018-09-21T11:24:50.145Z,968.45
2018-09-21T11:25:50.151Z,968.53
2018-09-21T11:26:50.162Z,968.50
2018-09-21T11:27:50.160Z,968.56
2018-09-21T11:28:50.202Z,968.49
2018-09-21T11:29:50.184Z,968.51
2018-09-21T11:30:50.188Z,968.51
2018-09-21T11:31:50.192Z,968.44
2018-09-21T11:32:50.201Z,968.65
2018-09-21T11:33:50.235Z,968.64
2018-09-21T11:34:50.218Z,968.31
2018-09-21T11:35:50.225Z,968.40
2018-09-21T11:36:50.287Z,968.43
2018-09-21T11:37:50.250Z,968.37
2018-09-21T11:38:50.278Z,968.45
2018-09-21T11:39:50.263Z,968.36
2018-09-21T11:40:50.337Z,968.37
2018-09-21T11:41:50.275Z,968.35
2018-09-21T11:42:50.293Z,968.27
2018-09-21T11:43:50.339Z,968.43
2018-09-21T11:44:50.308Z,968.33
2018-09-21T11:45:50.316Z,968.34
2018-09-21T11:46:50.362Z,968.43
2018-09-21T11:47:50.392Z,968.57
2018-09-21T11:48:50.377Z,968.58
2018-09-21T11:49:50.353Z,968.46
2018-09-21T11:50:50.370Z,968.36
2018-09-21T11:51:50.380Z,968.38
2018-09-21T11:52:50.392Z,968.26
2018-09-21T11:53:50.429Z,968.32
2018-09-21T11:54:50.409Z,968.35
2018-09-21T11:55:50.419Z,968.29
2018-09-21T11:56:50.428Z,968.40
2018-09-21T11:57:50.444Z,968.41
2018-09-21T11:58:50.492Z,968.27
2018-09-21T11:59:50.954Z,968.29
2018-09-21T12:00:56.524Z,968.29
2018-09-21T12:01:50.556Z,968.22
2018-09-21T12:02:52.521Z,968.27
2018-09-21T12:03:51.566Z,968.24
2018-09-21T12:04:51.514Z,968.29
2018-09-21T12:05:50.549Z,968.11
2018-09-21T12:06:58.819Z,968.15
2018-09-21T12:07:57.821Z,968.04
2018-09-21T12:08:55.376Z,968.17
2018-09-21T12:09:52.395Z,967.97
2018-09-21T12:10:52.465Z,967.92
2018-09-21T12:11:51.405Z,968.42
2018-09-21T12:12:53.895Z,968.15
2018-09-21T12:13:51.111Z,968.05
2018-09-21T12:14:51.834Z,968.04
2018-09-21T12:15:50.693Z,968.11
2018-09-21T12:16:52.366Z,968.21
2018-09-21T12:17:51.180Z,968.27
2018-09-21T12:18:52.553Z,968.03
2018-09-21T12:19:54.469Z,968.12
2018-09-21T12:20:51.661Z,968.02
2018-09-21T12:21:55.843Z,968.01
2018-09-21T12:22:50.775Z,968.10
2018-09-21T12:23:51.102Z,968.21
2018-09-21T12:24:51.611Z,968.12
2018-09-21T12:25:51.446Z,968.25
2018-09-21T12:26:53.470Z,968.18
2018-09-21T12:27:51.342Z,968.23
2018-09-21T12:28:54.839Z,968.26